ADDS METAR Data INFO
IDs: Format: Raw Decoded Include TAF

Data at: 0358 UTC 19 Feb 2018

KOOA 190335Z AUTO 15008KT 10SM OVC050 04/00 A2974 RMK AO2 T00421001
KOOA 190315Z AUTO 15008KT 10SM OVC050 04/00 A2974 RMK AO2 T00430000
KOOA 190255Z AUTO 15008KT 10SM OVC050 04/00 A2974 RMK AO2 T00430000
KOOA 190235Z AUTO 16010KT 10SM OVC050 05/00 A2974 RMK AO2 T00451002
KOOA 190215Z AUTO 16007KT 10SM OVC050 05/00 A2975 RMK AO2 T00451002
KOOA 190155Z AUTO 18006KT 10SM OVC048 05/00 A2975 RMK AO2 T00501003
KOOA 190135Z AUTO 19006KT 10SM OVC046 05/00 A2975 RMK AO2 T00461003
KOOA 190115Z AUTO 20007KT 10SM BKN046 05/M01 A2974 RMK AO2 T00521007
KOOA 190055Z AUTO 17010KT 10SM CLR 05/M01 A2972 RMK AO2 T00461010
KOOA 190035Z AUTO 16011KT 10SM CLR 05/M01 A2970 RMK AO2 T00521010
KOOA 190015Z AUTO 16014KT 10SM CLR 06/M01 A2970 RMK AO2 T00551010
KOOA 182355Z AUTO 16012KT 10SM CLR 06/M01 A2971 RMK AO2 T00601009 10085 20051
KOOA 182335Z AUTO 17013KT 10SM CLR 06/M01 A2971 RMK AO2 T00641006
KOOA 182315Z AUTO 17017G23KT 10SM CLR 07/M01 A2970 RMK AO2 T00731007
KOOA 182255Z AUTO 16017KT 10SM CLR 08/00 A2971 RMK AO2 T00751005
KOOA 182235Z AUTO 17015G22KT 10SM CLR 08/M01 A2972 RMK AO2 T00801006
KOOA 182215Z AUTO 17019G26KT 10SM CLR 08/M01 A2972 RMK AO2 T00841010
KOOA 182155Z AUTO 17018G25KT 10SM CLR 09/M01 A2974 RMK AO2 T00851009
KOOA 182135Z AUTO 17021G28KT 10SM CLR 08/M01 A2975 RMK AO2 T00821010
KOOA 182115Z AUTO 17016KT 10SM CLR 08/M01 A2977 RMK AO2 T00751015
KOOA 182055Z AUTO 18021KT 10SM CLR 07/M02 A2977 RMK AO2 T00711016
KOOA 182035Z AUTO 18023G28KT 10SM CLR 08/M03 A2980 RMK AO2 T00771026
KOOA 182015Z AUTO 18021G27KT 10SM CLR 08/M02 A2981 RMK AO2 T00751016
KOOA 181955Z AUTO 17018G29KT 10SM CLR 07/M02 A2984 RMK AO2 T00721020
KOOA 181935Z AUTO 17022KT 10SM CLR 07/M02 A2984 RMK AO2 T00701025
KOOA 181915Z AUTO 17022G27KT 10SM CLR 07/M03 A2986 RMK AO2 T00701029
KOOA 181855Z AUTO 17020G25KT 10SM CLR 07/M03 A2989 RMK AO2 T00671026
KOOA 181835Z AUTO 17017KT 10SM CLR 06/M02 A2991 RMK AO2 T00621021
KOOA 181815Z AUTO 17025G28KT 10SM CLR 06/M02 A2991 RMK AO2 T00551017
KOOA 181755Z AUTO 18020G29KT 10SM CLR 05/M02 A2994 RMK AO2 T00501020 10051 21051
KOOA 181735Z AUTO 18023G29KT 10SM CLR 05/M02 A2997 RMK AO2 T00491018
KOOA 181715Z AUTO 18021G25KT 10SM CLR 04/M01 A2998 RMK AO2 T00421009
KOOA 181655Z AUTO 17019G23KT 10SM CLR 04/00 A2999 RMK AO2 T00381005
KOOA 181635Z AUTO 17015G21KT 10SM CLR 03/00 A3002 RMK AO2 T00331005
KOOA 181615Z AUTO 17013KT 10SM CLR 03/M01 A3002 RMK AO2 T00261007
KOOA 181555Z AUTO 16015KT 10SM CLR 02/M01 A3002 RMK AO2 T00201011
KOOA 181535Z AUTO 15013KT 10SM CLR 01/M02 A3004 RMK AO2 T00131016
KOOA 181515Z AUTO 15012G19KT 10SM CLR 01/M02 A3006 RMK AO2 T00071025
KOOA 181455Z AUTO 15015KT 10SM CLR 00/M03 A3007 RMK AO2 T00001031
KOOA 181435Z AUTO 15015G20KT 10SM CLR M01/M04 A3008 RMK AO2 T10071036
KOOA 181415Z AUTO 15014KT 10SM CLR M01/M04 A3008 RMK AO2 T10151041
KOOA 181355Z AUTO 16014KT 10SM CLR M02/M04 A3009 RMK AO2 T10211045
KOOA 181335Z AUTO 15013KT 10SM CLR M03/M05 A3010 RMK AO2 T10301048
KOOA 181315Z AUTO 15013KT 10SM CLR M03/M05 A3010 RMK AO2 T10331050
KOOA 181255Z AUTO 16011KT 10SM CLR M04/M05 A3011 RMK AO2 T10401051
KOOA 181235Z AUTO 15011KT 10SM CLR M05/M06 A3012 RMK AO2 T10461056
KOOA 181215Z AUTO 15009KT 10SM CLR M05/M06 A3012 RMK AO2 T10461056
KOOA 181155Z AUTO 15010KT 10SM CLR M05/M06 A3012 RMK AO2 T10521059 11034 21073
KOOA 181135Z AUTO 16010KT 10SM CLR M06/M07 A3013 RMK AO2 T10611068
KOOA 181115Z AUTO 15008KT 10SM CLR M07/M08 A3013 RMK AO2 T10691076
KOOA 181055Z AUTO 15008KT 10SM CLR M07/M07 A3013 RMK AO2 T10661073
KOOA 181035Z AUTO 16007KT 10SM CLR M07/M08 A3013 RMK AO2 T10701077
KOOA 181015Z AUTO 15009KT 10SM CLR M06/M07 A3012 RMK AO2 T10631071
KOOA 180955Z AUTO 13008KT 10SM CLR M06/M06 A3012 RMK AO2 T10561064
KOOA 180935Z AUTO 13008KT 10SM CLR M06/M06 A3012 RMK AO2 T10581065
KOOA 180915Z AUTO 14006KT 10SM CLR M06/M07 A3014 RMK AO2 T10591066
KOOA 180855Z AUTO 14007KT 10SM CLR M05/M06 A3015 RMK AO2 T10541060
KOOA 180835Z AUTO 15007KT 10SM CLR M06/M07 A3015 RMK AO2 T10641069
KOOA 180815Z AUTO 15010KT 10SM CLR M06/M07 A3017 RMK AO2 T10641073
KOOA 180755Z AUTO 14007KT 10SM CLR M06/M07 A3017 RMK AO2 T10621066
KOOA 180735Z AUTO 15008KT 10SM CLR M07/M08 A3017 RMK AO2 T10711076
KOOA 180715Z AUTO 16006KT 10SM CLR M05/M06 A3017 RMK AO2 T10511056
KOOA 180655Z AUTO 13004KT 10SM CLR M06/M07 A3016 RMK AO2 T10611066
KOOA 180635Z AUTO 00000KT 10SM CLR M06/M07 A3017 RMK AO2 T10641070
KOOA 180615Z AUTO 21003KT 10SM CLR M04/M05 A3018 RMK AO2 T10411053
KOOA 180555Z AUTO 31004KT 10SM CLR M03/M04 A3018 RMK AO2 T10341044 11007 21042 400111100
KOOA 180535Z AUTO 29004KT 10SM CLR M03/M04 A3018 RMK AO2 T10311041
KOOA 180515Z AUTO 26004KT 10SM CLR M03/M05 A3018 RMK AO2 T10351048
KOOA 180455Z AUTO 27004KT 10SM CLR M03/M04 A3018 RMK AO2 T10271045
KOOA 180435Z AUTO 26005KT 10SM CLR M03/M04 A3019 RMK AO2 T10281044
KOOA 180415Z AUTO 29005KT 10SM CLR M03/M04 A3018 RMK AO2 T10291042
KOOA 180355Z AUTO 29005KT 10SM CLR M04/M05 A3018 RMK AO2 T10401051
KOOA 180335Z AUTO 29007KT 10SM CLR M04/M05 A3018 RMK AO2 T10401053
KOOA 180315Z AUTO 28007KT 10SM CLR M03/M05 A3017 RMK AO2 T10351046
KOOA 180255Z AUTO 29008KT 10SM CLR M04/M05 A3016 RMK AO2 T10381049
KOOA 180235Z AUTO 27007KT 10SM SCT110 M03/M04 A3015 RMK AO2 T10281036
KOOA 180215Z AUTO 28006KT 10SM CLR M03/M04 A3015 RMK AO2 T10331041
KOOA 180155Z AUTO 28006KT 10SM CLR M03/M04 A3015 RMK AO2 T10321042
KOOA 180135Z AUTO 29004KT 10SM CLR M02/M04 A3015 RMK AO2 T10231040
KOOA 180115Z AUTO 33005KT 10SM CLR M02/M03 A3014 RMK AO2 T10181033
KOOA 180055Z AUTO 32005KT 10SM CLR M02/M03 A3013 RMK AO2 T10201035
KOOA 180035Z AUTO 31005KT 10SM CLR M01/M03 A3012 RMK AO2 T10151032
KOOA 180015Z AUTO 33006KT 10SM SCT046 M01/M03 A3011 RMK AO2 T10111030
KOOA 172355Z AUTO 31005KT 10SM SCT046 M01/M03 A3010 RMK AO2 T10091026 10011 21011
KOOA 172335Z AUTO 30005KT 10SM SCT049 M01/M03 A3010 RMK AO2 T10101030
KOOA 172315Z AUTO 30008KT 10SM CLR 00/M02 A3010 RMK AO2 T00001024
KOOA 172255Z AUTO 31010KT 10SM CLR 00/M02 A3009 RMK AO2 T00031022
KOOA 172235Z AUTO 32009KT 10SM CLR 01/M02 A3007 RMK AO2 T00061022
KOOA 172215Z AUTO 32011KT 10SM CLR 01/M02 A3006 RMK AO2 T00101021
KOOA 172155Z AUTO 32010KT 10SM CLR 01/M02 A3004 RMK AO2 T00101020
KOOA 172135Z AUTO 31013KT 10SM CLR 01/M02 A3003 RMK AO2 T00101023
KOOA 172115Z AUTO 30015KT 10SM CLR 01/M02 A3002 RMK AO2 T00101025
KOOA 172055Z AUTO 31016G22KT 10SM CLR 01/M03 A3000 RMK AO2 T00081030
KOOA 172035Z AUTO 30013KT 10SM CLR 01/M03 A2999 RMK AO2 T00071029
KOOA 172015Z AUTO 30018KT 10SM SCT024 01/M03 A2998 RMK AO2 T00071027
KOOA 171955Z AUTO 31014KT 10SM BKN024 01/M03 A2996 RMK AO2 T00071027
KOOA 171935Z AUTO 30020KT 10SM OVC022 00/M03 A2996 RMK AO2 T00041027
KOOA 171915Z AUTO 30015KT 10SM BKN022 01/M03 A2995 RMK AO2 T00061026
KOOA 171855Z AUTO 29014G21KT 10SM SCT045 SCT055 00/M02 A2995 RMK AO2 T00021025
KOOA 171835Z AUTO 29014KT 10SM SCT008 SCT014 BKN022 00/M02 A2996 RMK AO2 T00001019
KOOA 171815Z AUTO 27011KT 4SM -SN SCT009 BKN013 OVC050 00/M01 A2996 RMK AO2 T00001015
KOOA 171755Z AUTO 26010KT 1SM -SN OVC007 00/M02 A2996 RMK AO2 T10051016 11005 21051
KOOA 171735Z AUTO 24008KT 1/2SM -SN OVC005 M01/M02 A2996 RMK AO2 T10111025
KOOA 171715Z AUTO 22009KT 4SM -SN SCT010 BKN018 OVC037 M02/M03 A2995 RMK AO2 T10161030
KOOA 171655Z AUTO 22008KT 1 1/2SM -SN SCT006 BKN010 OVC015 M02/M03 A2996 RMK AO2 T10161031
KOOA 171635Z AUTO 19008KT 1/2SM SN OVC008 M02/M04 A2995 RMK AO2 T10201036
KOOA 171615Z AUTO 20008KT 1 1/2SM -SN OVC012 M02/M05 A2995 RMK AO2 T10201046